DW7027 Weather Reports


Display with metric or nautical units.
time (UTC)temp
F
wind
direction
speed
MPH
gust
MPH
rain 1hr
in
rain 24hr
in
rain mn
in
humidity
%
barometer
mb
20201205050657 42 139 11.0 25.0 0.00 0.04 0.00 82 1004.0
20201205045653 42 135 12.0 28.0 0.00 0.04 0.00 83 1004.0
20201205044654 42 134 10.0 23.0 0.00 0.04 0.00 83 1004.0
20201205043656 42 148 13.0 17.0 0.00 0.04 0.00 83 1004.0
20201205042652 42 135 12.0 21.0 0.00 0.08 0.00 83 1004.0
20201205041653 42 139 8.0 20.0 0.00 0.08 0.00 83 1004.0
20201205040655 42 196 7.0 17.0 0.00 0.08 0.00 83 1004.0
20201205035653 41 135 12.0 15.0 0.00 0.08 0.00 83 1004.0
20201205034654 41 135 9.0 15.0 0.00 0.08 0.00 82 1004.0
20201205033656 41 135 10.0 18.0 0.00 0.08 0.00 82 1004.0
20201205032653 41 178 11.0 17.0 0.00 0.08 0.00 82 1004.0
20201205031654 42 131 12.0 20.0 0.00 0.12 0.00 81 1004.0
20201205030653 42 135 10.0 23.0 0.00 0.12 0.00 81 1004.0
20201205025654 42 124 10.0 23.0 0.00 0.12 0.00 80 1003.0
20201205024653 42 135 11.0 17.0 0.00 0.12 0.00 79 1003.0
20201205023655 42 135 8.0 16.0 0.00 0.12 0.00 79 1004.0
20201205022656 42 145 11.0 17.0 0.00 0.12 0.00 79 1003.0
20201205021653 42 140 10.0 20.0 0.00 0.12 0.00 79 1003.0
20201205020653 42 146 10.0 17.0 0.00 0.17 0.00 79 1003.0
20201205015654 42 130 12.0 22.0 0.00 0.17 0.00 79 1004.0
20201205014653 42 115 9.0 15.0 0.00 0.17 0.00 79 1004.0
20201205013653 42 135 9.0 15.0 0.00 0.17 0.00 80 1004.0
20201205012655 42 115 9.0 20.0 0.00 0.17 0.00 80 1003.0
20201205011654 42 127 10.0 18.0 0.00 0.17 0.00 80 1003.0
20201205010654 42 151 10.0 17.0 0.00 0.21 0.00 80 1004.0
20201205005657 42 135 12.0 23.0 0.00 0.21 0.00 80 1004.0
20201205004655 42 135 12.0 23.0 0.00 0.21 0.00 81 1004.0
20201205003704 42 135 13.0 22.0 0.00 0.21 0.00 82 1003.0
20201205002653 41 135 12.0 22.0 0.00 0.21 0.00 82 1003.0
20201205001654 41 135 9.0 15.0 0.00 0.21 0.00 82 1003.0
20201205000654 41 129 7.0 15.0 0.00 0.21 0.00 81 1003.0
20201204235655 41 139 9.0 22.0 0.00 0.21 0.00 81 1003.0
20201204234705 41 124 12.0 24.0 0.00 0.21 0.00 81 1003.0
20201204233708 41 135 14.0 23.0 0.00 0.21 0.00 81 1004.0
20201204232654 41 135 11.0 23.0 0.00 0.21 0.00 81 1004.0
20201204231654 41 158 8.0 16.0 0.00 0.21 0.00 81 1004.0
20201204230655 41 185 8.0 17.0 0.00 0.21 0.00 81 1004.0
20201204225700 41 139 12.0 25.0 0.00 0.21 0.21 81 1004.0
20201204224658 41 168 10.0 25.0 0.00 0.21 0.21 81 1004.0
20201204223658 41 131 13.0 24.0 0.00 0.21 0.21 81 1005.0
20201204222709 41 135 12.0 25.0 0.00 0.21 0.21 81 1004.0
20201204221654 41 135 16.0 30.0 0.00 0.21 0.21 82 1004.0
20201204220658 41 134 12.0 20.0 0.00 0.21 0.21 82 1004.0
20201204215654 41 135 13.0 23.0 0.00 0.21 0.21 82 1004.0
20201204214657 40 135 12.0 24.0 0.00 0.21 0.21 83 1004.0
20201204213655 40 155 9.0 18.0 0.00 0.21 0.21 83 1004.0
20201204212655 40 135 10.0 16.0 0.00 0.21 0.21 83 1004.0
20201204211659 40 135 11.0 20.0 0.00 0.21 0.21 83 1004.0
20201204210654 40 135 12.0 21.0 0.00 0.21 0.21 83 1004.0
20201204205655 40 135 12.0 23.0 0.00 0.21 0.21 83 1004.0
20201204204657 40 135 11.0 23.0 0.00 0.21 0.21 83 1004.0
20201204203653 40 127 10.0 20.0 0.00 0.21 0.21 83 1004.0
20201204202654 40 135 10.0 21.0 0.00 0.21 0.21 83 1004.0
20201204201742 40 135 13.0 18.0 0.00 0.21 0.21 83 1004.0
20201204200800 40 135 12.0 20.0 0.00 0.21 0.21 83 1004.0
20201204195654 40 135 13.0 21.0 0.00 0.21 0.21 83 1004.0
20201204194656 40 135 9.0 16.0 0.00 0.21 0.21 83 1004.0
20201204193654 40 135 15.0 13.0 0.00 0.21 0.21 83 1003.0
20201204192654 40 135 15.0 13.0 0.00 0.21 0.21 82 1003.0
20201204191655 40 135 15.0 13.0 0.00 0.21 0.21 82 1003.0
20201204190655 40 135 15.0 13.0 0.00 0.21 0.21 82 1003.0
20201204185658 40 135 15.0 13.0 0.00 0.21 0.21 81 1003.0
20201204184654 40 135 15.0 20.0 0.00 0.21 0.21 81 1003.0
20201204183655 40 116 13.0 25.0 0.00 0.21 0.21 81 1003.0
20201204182655 40 128 12.0 23.0 0.00 0.21 0.21 81 1003.0
20201204181656 40 135 15.0 24.0 0.00 0.21 0.21 81 1003.0
20201204180656 40 135 13.0 22.0 0.00 0.21 0.21 81 1002.0
20201204175657 40 140 13.0 24.0 0.00 0.21 0.21 81 1002.0
20201204174657 40 127 16.0 23.0 0.00 0.21 0.21 81 1002.0
20201204173656 40 140 16.0 28.0 0.00 0.21 0.21 81 1002.0
20201204171658 40 133 14.0 28.0 0.00 0.21 0.21 82 1001.0
20201204170657 40 171 13.0 24.0 0.00 0.21 0.21 82 1002.0
20201204165657 40 132 13.0 26.0 0.00 0.21 0.21 82 1002.0
20201204164655 40 125 13.0 28.0 0.00 0.21 0.21 82 1002.0
20201204163656 39 150 15.0 25.0 0.00 0.21 0.21 81 1002.0
20201204162658 39 130 14.0 26.0 0.00 0.21 0.21 81 1002.0
20201204161655 39 270 10.0 10.0 0.00 0.21 0.21 81 1002.0
20201204160703 39 270 10.0 10.0 0.00 0.21 0.21 81 1001.0
20201204155656 39 270 10.0 10.0 0.00 0.21 0.21 81 1002.0
20201204154655 39 270 10.0 10.0 0.00 0.21 0.21 82 1002.0
20201204153657 39 270 10.0 10.0 0.00 0.21 0.21 82 1002.0
20201204152700 39 270 10.0 10.0 0.00 0.21 0.21 82 1002.0
20201204151655 39 270 10.0 10.0 0.00 0.21 0.21 81 1002.0
20201204150655 39 270 10.0 10.0 0.00 0.21 0.21 81 1002.0
20201204145700 39 270 10.0 10.0 0.00 0.21 0.21 80 1002.0
20201204144658 39 270 10.0 10.0 0.00 0.21 0.21 79 1002.0
20201204143655 40 270 10.0 10.0 0.00 0.21 0.21 79 1002.0
20201204142658 40 270 10.0 10.0 0.00 0.21 0.21 79 1002.0
20201204141655 40 270 10.0 10.0 0.00 0.21 0.21 79 1002.0
20201204140701 40 270 10.0 10.0 0.00 0.21 0.21 78 1002.0
20201204135656 40 270 10.0 10.0 0.00 0.21 0.21 78 1002.0
20201204134658 40 270 10.0 10.0 0.00 0.21 0.21 78 1002.0
20201204133655 40 270 10.0 10.0 0.00 0.21 0.21 77 1002.0
20201204132656 40 270 10.0 10.0 0.00 0.21 0.21 78 1001.0
20201204131655 40 270 10.0 10.0 0.00 0.21 0.21 78 1001.0
20201204130655 40 270 10.0 10.0 0.00 0.21 0.21 78 1001.0
20201204125657 40 270 10.0 10.0 0.00 0.21 0.21 78 1002.0
20201204124658 40 225 12.0 23.0 0.00 0.21 0.21 77 1002.0
20201204123658 40 135 14.0 28.0 0.00 0.21 0.21 78 1001.0
20201204122656 40 210 13.0 28.0 0.00 0.21 0.21 78 1002.0
20201204121656 40 150 12.0 26.0 0.00 0.21 0.21 78 1002.0
20201204120656 40 167 15.0 24.0 0.00 0.21 0.21 78 1002.0
20201204115656 40 141 12.0 25.0 0.00 0.21 0.21 79 1002.0
20201204114701 40 166 10.0 22.0 0.00 0.21 0.21 80 1002.0
20201204113656 40 136 9.0 22.0 0.00 0.21 0.21 81 1002.0
20201204112702 39 168 8.0 13.0 0.00 0.21 0.21 83 1002.0
20201204111657 39 135 7.0 13.0 0.00 0.21 0.21 84 1002.0
20201204110655 39 135 7.0 12.0 0.00 0.21 0.21 85 1002.0
20201204105656 39 135 7.0 14.0 0.00 0.21 0.21 86 1002.0
20201204104658 39 179 7.0 10.0 0.00 0.21 0.21 86 1002.0
20201204103657 38 127 5.0 9.0 0.00 0.21 0.21 87 1002.0
20201204102656 38 185 2.0 13.0 0.00 0.21 0.21 88 1001.0
20201204101658 38 113 7.0 10.0 0.00 0.21 0.21 88 1001.0
20201204100701 38 140 3.0 13.0 0.00 0.21 0.21 89 1002.0
20201204095659 38 120 6.0 10.0 0.00 0.21 0.21 89 1002.0
20201204094656 37 135 7.0 12.0 0.00 0.21 0.21 89 1002.0
20201204093657 37 211 4.0 6.0 0.00 0.21 0.21 89 1002.0
20201204092658 37 233 4.0 12.0 0.00 0.21 0.21 88 1002.0
20201204091656 37 216 6.0 12.0 0.00 0.21 0.21 88 1002.0
20201204090656 37 139 7.0 23.0 0.00 0.21 0.21 88 1002.0
20201204085706 37 135 11.0 22.0 0.00 0.21 0.21 89 1001.0
20201204084700 37 117 13.0 23.0 0.00 0.21 0.21 89 1001.0
20201204083659 37 133 12.0 24.0 0.00 0.21 0.21 90 1002.0
20201204082700 37 135 9.0 24.0 0.00 0.21 0.21 90 1002.0
20201204081658 37 134 12.0 22.0 0.00 0.21 0.21 91 1002.0
20201204080659 37 129 12.0 15.0 0.00 0.21 0.21 90 1002.0
20201204075656 37 135 9.0 16.0 0.00 0.21 0.21 90 1003.0
20201204074656 37 124 8.0 22.0 0.00 0.21 0.21 90 1003.0
20201204073655 37 135 7.0 20.0 0.00 0.21 0.21 90 1002.0
20201204072657 37 129 9.0 17.0 0.00 0.21 0.21 90 1002.0
20201204071714 37 120 9.0 21.0 0.00 0.21 0.21 89 1002.0
20201204070658 37 125 12.0 18.0 0.00 0.21 0.21 89 1001.0
20201204065702 37 134 12.0 24.0 0.00 0.21 0.21 89 1002.0
20201204064701 37 135 15.0 23.0 0.04 0.21 0.21 89 1002.0
20201204063701 37 165 12.0 20.0 0.04 0.21 0.21 89 1002.0
20201204062700 37 144 12.0 17.0 0.04 0.21 0.21 90 1002.0
20201204061656 37 138 10.0 20.0 0.04 0.21 0.21 90 1002.0
20201204060656 37 139 9.0 20.0 0.04 0.21 0.21 90 1002.0
20201204055657 37 210 12.0 23.0 0.04 0.21 0.21 90 1002.0
20201204054656 37 139 13.0 17.0 0.00 0.17 0.17 91 1002.0
20201204053658 37 135 11.0 20.0 0.00 0.17 0.17 92 1002.0
20201204052656 37 135 7.0 17.0 0.04 0.17 0.17 93 1002.0
20201204051657 36 174 10.0 21.0 0.04 0.17 0.17 95 1002.0